PWSweather.com
Personal Weather Stations
Station Observations
ISCHONGA6
Schongau Forchet, SchongauDE 86956

Schongau ForchetSchongauDE 86956

Lat: 47.8049152, Lon: 10.886856699999953

Elevation: 2407

Station Type: Netatmo

Latest ConditionsUpdated 11:15:00 PM GMT+01:01 Monday, Oct 15, 2018
Currently Today's Max Today's Min Today's Average
Temperature 52.0°F11.1°C 70.9°F21.6°C 44.6°F7.0°C 56.8°F13.8°C
Dew Point 40.8°F4.9°C 46.2°F7.9°C 37.6°F3.1°C 42.5°F5.8°C
Winds 1.8 mph SW2.9 kmh SW 3.1 mph -5.0 kmh - - 1.2 mph 1.9 kmh
Wind Gusts 4.9 mph7.9 kmh 6.9 mph11.1 kmh - -
Humidity 71% 83% 36% 64%
Pressure 30.03 in1016.9 mb 30.03 in1016.9 mb 29.96 in1014.6 mb -
Hour Temp Dew Point Humidity Winds Wind Gusts Pressure Precip Precip Rate Daily Precip Total
11:15 PM 52.0°F11.1°C 40.8°F4.9°C 71% 1.8 mph SW2.9 kmh SW 4.9 mph7.9 kmh 30.03 in1016.9 mb 0.00 in0.0 mm 0.00 in0.0 mm 0.00 in0.0 mm
11:05 PM 52.3°F11.3°C 41.2°F5.1°C 71% 1.3 mph SW2.1 kmh SW 2.5 mph4.0 kmh 30.03 in1016.9 mb 0.00 in0.0 mm 0.00 in0.0 mm 0.00 in0.0 mm
10:54 PM 52.9°F11.6°C 41.7°F5.4°C 71% 1.8 mph SW2.9 kmh SW 4.9 mph7.9 kmh 30.03 in1016.9 mb 0.00 in0.0 mm 0.00 in0.0 mm 0.00 in0.0 mm
10:44 PM 53.2°F11.8°C 42.1°F5.6°C 71% 0.7 mph SW1.1 kmh SW 1.8 mph2.9 kmh 30.03 in1016.9 mb 0.00 in0.0 mm 0.00 in0.0 mm 0.00 in0.0 mm
10:35 PM 53.4°F11.9°C 41.5°F5.3°C 69% 1.8 mph SW2.9 kmh SW 5.6 mph9.0 kmh 30.03 in1016.9 mb 0.00 in0.0 mm 0.00 in0.0 mm 0.00 in0.0 mm
10:25 PM 53.8°F12.1°C 41.7°F5.4°C 69% 1.3 mph SW2.1 kmh SW 4.3 mph6.9 kmh 30.03 in1016.9 mb 0.00 in0.0 mm 0.00 in0.0 mm 0.00 in0.0 mm
10:14 PM 54.0°F12.2°C 41.9°F5.5°C 69% 2.5 mph SW4.0 kmh SW 5.6 mph9.0 kmh 30.03 in1016.9 mb 0.00 in0.0 mm 0.00 in0.0 mm 0.00 in0.0 mm
10:04 PM 54.1°F12.3°C 42.1°F5.6°C 69% 2.5 mph SW4.0 kmh SW 4.3 mph6.9 kmh 30.03 in1016.9 mb 0.00 in0.0 mm 0.00 in0.0 mm 0.00 in0.0 mm
09:54 PM 54.1°F12.3°C 42.6°F5.9°C 70% 2.5 mph SW4.0 kmh SW 5.6 mph9.0 kmh 30.03 in1016.9 mb 0.00 in0.0 mm 0.00 in0.0 mm 0.00 in0.0 mm
09:44 PM 54.0°F12.2°C 42.4°F5.8°C 70% 3.1 mph SW5.0 kmh SW 6.9 mph11.1 kmh 30.02 in1016.6 mb 0.00 in0.0 mm 0.00 in0.0 mm 0.00 in0.0 mm
09:34 PM 53.8°F12.1°C 42.6°F5.9°C 71% 3.1 mph SSW5.0 kmh SSW 6.9 mph11.1 kmh 30.02 in1016.6 mb 0.00 in0.0 mm 0.00 in0.0 mm 0.00 in0.0 mm
09:24 PM 53.6°F12.0°C 42.8°F6.0°C 72% 2.5 mph SSW4.0 kmh SSW 4.9 mph7.9 kmh 30.02 in1016.6 mb 0.00 in0.0 mm 0.00 in0.0 mm 0.00 in0.0 mm
09:14 PM 53.4°F11.9°C 42.6°F5.9°C 72% 3.1 mph SSW5.0 kmh SSW 5.6 mph9.0 kmh 30.03 in1016.9 mb 0.00 in0.0 mm 0.00 in0.0 mm 0.00 in0.0 mm
09:03 PM 53.4°F11.9°C 42.6°F5.9°C 72% 2.5 mph SW4.0 kmh SW 6.3 mph10.1 kmh 30.02 in1016.6 mb 0.00 in0.0 mm 0.00 in0.0 mm 0.00 in0.0 mm
08:54 PM 53.4°F11.9°C 42.6°F5.9°C 72% 2.5 mph SSW4.0 kmh SSW 5.6 mph9.0 kmh 30.02 in1016.6 mb 0.00 in0.0 mm 0.00 in0.0 mm 0.00 in0.0 mm
08:44 PM 53.6°F12.0°C 43.2°F6.2°C 73% 1.8 mph SSW2.9 kmh SSW 4.3 mph6.9 kmh 30.01 in1016.3 mb 0.00 in0.0 mm 0.00 in0.0 mm 0.00 in0.0 mm
08:34 PM 54.1°F12.3°C 43.7°F6.5°C 73% 1.3 mph SW2.1 kmh SW 2.5 mph4.0 kmh 30.01 in1016.3 mb 0.00 in0.0 mm 0.00 in0.0 mm 0.00 in0.0 mm
08:23 PM 54.5°F12.5°C 43.7°F6.5°C 72% 1.3 mph SW2.1 kmh SW 2.5 mph4.0 kmh 30.01 in1016.3 mb 0.00 in0.0 mm 0.00 in0.0 mm 0.00 in0.0 mm
08:13 PM 54.9°F12.7°C 44.1°F6.7°C 72% 1.3 mph SW2.1 kmh SW 2.5 mph4.0 kmh 30.01 in1016.3 mb 0.00 in0.0 mm 0.00 in0.0 mm 0.00 in0.0 mm
08:04 PM 55.2°F12.9°C 44.1°F6.7°C 71% 1.3 mph WSW2.1 kmh WSW 1.8 mph2.9 kmh 30.01 in1016.3 mb 0.00 in0.0 mm 0.00 in0.0 mm 0.00 in0.0 mm
07:53 PM 55.6°F13.1°C 43.9°F6.6°C 70% 1.3 mph SW2.1 kmh SW 2.5 mph4.0 kmh 30.01 in1016.3 mb 0.00 in0.0 mm 0.00 in0.0 mm 0.00 in0.0 mm
07:43 PM 56.3°F13.5°C 44.2°F6.8°C 69% 1.3 mph SW2.1 kmh SW 3.1 mph5.0 kmh 30.01 in1016.3 mb 0.00 in0.0 mm 0.00 in0.0 mm 0.00 in0.0 mm
07:33 PM 56.8°F13.8°C 44.4°F6.9°C 68% 1.8 mph SW2.9 kmh SW 2.5 mph4.0 kmh 30.00 in1015.9 mb 0.00 in0.0 mm 0.00 in0.0 mm 0.00 in0.0 mm
07:23 PM 57.4°F14.1°C 44.4°F6.9°C 67% 1.3 mph WSW2.1 kmh WSW 1.8 mph2.9 kmh 30.00 in1015.9 mb 0.00 in0.0 mm 0.00 in0.0 mm 0.00 in0.0 mm
07:13 PM 58.1°F14.5°C 44.8°F7.1°C 66% 0.7 mph SW1.1 kmh SW 1.8 mph2.9 kmh 30.00 in1015.9 mb 0.00 in0.0 mm 0.00 in0.0 mm 0.00 in0.0 mm
07:03 PM 58.5°F14.7°C 44.2°F6.8°C 64% 0.7 mph W1.1 kmh W 1.8 mph2.9 kmh 29.99 in1015.6 mb 0.00 in0.0 mm 0.00 in0.0 mm 0.00 in0.0 mm
06:53 PM 59.0°F15.0°C 44.8°F7.1°C 64% 1.3 mph SW2.1 kmh SW 1.8 mph2.9 kmh 30.00 in1015.9 mb 0.00 in0.0 mm 0.00 in0.0 mm 0.00 in0.0 mm
06:42 PM 59.5°F15.3°C 45.0°F7.2°C 63% 1.3 mph W2.1 kmh W 2.5 mph4.0 kmh 29.99 in1015.6 mb 0.00 in0.0 mm 0.00 in0.0 mm 0.00 in0.0 mm
06:33 PM 60.3°F15.7°C 45.1°F7.3°C 62% 1.3 mph WSW2.1 kmh WSW 1.8 mph2.9 kmh 30.00 in1015.9 mb 0.00 in0.0 mm 0.00 in0.0 mm 0.00 in0.0 mm
06:23 PM 61.0°F16.1°C 45.5°F7.5°C 61% 1.3 mph SW2.1 kmh SW 2.5 mph4.0 kmh 29.99 in1015.6 mb 0.00 in0.0 mm 0.00 in0.0 mm 0.00 in0.0 mm
06:13 PM 61.7°F16.5°C 45.0°F7.2°C 58% 0.7 mph W1.1 kmh W 1.3 mph2.1 kmh 29.99 in1015.6 mb 0.00 in0.0 mm 0.00 in0.0 mm 0.00 in0.0 mm
06:02 PM 62.2°F16.8°C 45.0°F7.2°C 57% 0.7 mph W1.1 kmh W 1.3 mph2.1 kmh 29.99 in1015.6 mb 0.00 in0.0 mm 0.00 in0.0 mm 0.00 in0.0 mm
05:52 PM 62.8°F17.1°C 45.1°F7.3°C 56% 0.7 mph NW1.1 kmh NW 1.8 mph2.9 kmh 29.98 in1015.2 mb 0.00 in0.0 mm 0.00 in0.0 mm 0.00 in0.0 mm
05:43 PM 63.3°F17.4°C 45.1°F7.3°C 55% 0.7 mph W1.1 kmh W 1.3 mph2.1 kmh 29.98 in1015.2 mb 0.00 in0.0 mm 0.00 in0.0 mm 0.00 in0.0 mm
05:32 PM 64.0°F17.8°C 45.5°F7.5°C 54% 0.7 mph SE1.1 kmh SE 4.3 mph6.9 kmh 29.98 in1015.2 mb 0.00 in0.0 mm 0.00 in0.0 mm 0.00 in0.0 mm
05:22 PM 64.6°F18.1°C 45.5°F7.5°C 53% 0.7 mph N1.1 kmh N 1.8 mph2.9 kmh 29.98 in1015.2 mb 0.00 in0.0 mm 0.00 in0.0 mm 0.00 in0.0 mm
05:12 PM 65.3°F18.5°C 45.3°F7.4°C 51% 1.3 mph E2.1 kmh E 5.6 mph9.0 kmh 29.98 in1015.2 mb 0.00 in0.0 mm 0.00 in0.0 mm 0.00 in0.0 mm
05:02 PM 66.0°F18.9°C 45.7°F7.6°C 50% 0.7 mph SE1.1 kmh SE 2.5 mph4.0 kmh 29.97 in1014.9 mb 0.00 in0.0 mm 0.00 in0.0 mm 0.00 in0.0 mm
04:52 PM 66.6°F19.2°C 45.3°F7.4°C 48% 0.7 mph E1.1 kmh E 4.3 mph6.9 kmh 29.97 in1014.9 mb 0.00 in0.0 mm 0.00 in0.0 mm 0.00 in0.0 mm
04:32 PM 68.0°F20.0°C 44.1°F6.7°C 42% 0.7 mph E1.1 kmh E 2.5 mph4.0 kmh 29.96 in1014.6 mb 0.00 in0.0 mm 0.00 in0.0 mm 0.00 in0.0 mm
04:21 PM 68.5°F20.3°C 44.6°F7.0°C 42% 0.7 mph E1.1 kmh E 1.8 mph2.9 kmh 29.96 in1014.6 mb 0.00 in0.0 mm 0.00 in0.0 mm 0.00 in0.0 mm
04:12 PM 68.9°F20.5°C 44.6°F7.0°C 41% 1.3 mph E2.1 kmh E 4.3 mph6.9 kmh 29.96 in1014.6 mb 0.00 in0.0 mm 0.00 in0.0 mm 0.00 in0.0 mm
04:01 PM 69.3°F20.7°C 44.8°F7.1°C 41% 1.3 mph NE2.1 kmh NE 3.1 mph5.0 kmh 29.96 in1014.6 mb 0.00 in0.0 mm 0.00 in0.0 mm 0.00 in0.0 mm
03:52 PM 69.6°F20.9°C 45.1°F7.3°C 41% 1.8 mph E2.9 kmh E 5.6 mph9.0 kmh 29.96 in1014.6 mb 0.00 in0.0 mm 0.00 in0.0 mm 0.00 in0.0 mm
03:41 PM 70.0°F21.1°C 45.5°F7.5°C 41% 0.7 mph E1.1 kmh E 2.5 mph4.0 kmh 29.96 in1014.6 mb 0.00 in0.0 mm 0.00 in0.0 mm 0.00 in0.0 mm
03:31 PM 70.2°F21.2°C 45.3°F7.4°C 40% 0.7 mph E1.1 kmh E 2.5 mph4.0 kmh 29.96 in1014.6 mb 0.00 in0.0 mm 0.00 in0.0 mm 0.00 in0.0 mm
03:22 PM 70.3°F21.3°C 45.9°F7.7°C 41% 1.3 mph ESE2.1 kmh ESE 6.3 mph10.1 kmh 29.96 in1014.6 mb 0.00 in0.0 mm 0.00 in0.0 mm 0.00 in0.0 mm
03:11 PM 70.3°F21.3°C 45.9°F7.7°C 41% 0.7 mph E1.1 kmh E 3.1 mph5.0 kmh 29.96 in1014.6 mb 0.00 in0.0 mm 0.00 in0.0 mm 0.00 in0.0 mm
03:01 PM 70.5°F21.4°C 45.7°F7.6°C 40% 1.3 mph E2.1 kmh E 4.9 mph7.9 kmh 29.96 in1014.6 mb 0.00 in0.0 mm 0.00 in0.0 mm 0.00 in0.0 mm
02:51 PM 70.7°F21.5°C 46.2°F7.9°C 41% 1.3 mph E2.1 kmh E 5.6 mph9.0 kmh 29.96 in1014.6 mb 0.00 in0.0 mm 0.00 in0.0 mm 0.00 in0.0 mm
02:41 PM 70.7°F21.5°C 46.2°F7.9°C 41% 0.7 mph NE1.1 kmh NE 3.1 mph5.0 kmh 29.96 in1014.6 mb 0.00 in0.0 mm 0.00 in0.0 mm 0.00 in0.0 mm
02:31 PM 70.7°F21.5°C 45.7°F7.6°C 40% 1.8 mph ENE2.9 kmh ENE 5.6 mph9.0 kmh 29.96 in1014.6 mb 0.00 in0.0 mm 0.00 in0.0 mm 0.00 in0.0 mm
02:21 PM 70.9°F21.6°C 45.1°F7.3°C 38% 0.7 mph E1.1 kmh E 3.1 mph5.0 kmh 29.96 in1014.6 mb 0.00 in0.0 mm 0.00 in0.0 mm 0.00 in0.0 mm
02:11 PM 70.7°F21.5°C 45.7°F7.6°C 40% 1.3 mph ESE2.1 kmh ESE 4.9 mph7.9 kmh 29.97 in1014.9 mb 0.00 in0.0 mm 0.00 in0.0 mm 0.00 in0.0 mm
02:01 PM 70.7°F21.5°C 45.3°F7.4°C 39% 1.3 mph E2.1 kmh E 2.5 mph4.0 kmh 29.96 in1014.6 mb 0.00 in0.0 mm 0.00 in0.0 mm 0.00 in0.0 mm
01:50 PM 70.7°F21.5°C 44.1°F6.7°C 36% 1.3 mph ESE2.1 kmh ESE 4.9 mph7.9 kmh 29.96 in1014.6 mb 0.00 in0.0 mm 0.00 in0.0 mm 0.00 in0.0 mm
01:41 PM 70.7°F21.5°C 44.1°F6.7°C 36% 1.8 mph SE2.9 kmh SE 6.3 mph10.1 kmh 29.97 in1014.9 mb 0.00 in0.0 mm 0.00 in0.0 mm 0.00 in0.0 mm
01:31 PM 70.5°F21.4°C 44.8°F7.1°C 38% 1.3 mph S2.1 kmh S 4.3 mph6.9 kmh 29.97 in1014.9 mb 0.00 in0.0 mm 0.00 in0.0 mm 0.00 in0.0 mm
01:20 PM 70.3°F21.3°C 44.2°F6.8°C 37% 0.7 mph E1.1 kmh E 2.5 mph4.0 kmh 29.97 in1014.9 mb 0.00 in0.0 mm 0.00 in0.0 mm 0.00 in0.0 mm
01:10 PM 70.2°F21.2°C 44.1°F6.7°C 37% 1.3 mph S2.1 kmh S 4.3 mph6.9 kmh 29.97 in1014.9 mb 0.00 in0.0 mm 0.00 in0.0 mm 0.00 in0.0 mm
01:01 PM 70.0°F21.1°C 44.6°F7.0°C 39% 1.3 mph S2.1 kmh S 4.9 mph7.9 kmh 29.97 in1014.9 mb 0.00 in0.0 mm 0.00 in0.0 mm 0.00 in0.0 mm
12:50 PM 69.8°F21.0°C 44.6°F7.0°C 39% 1.3 mph SSW2.1 kmh SSW 4.9 mph7.9 kmh 29.97 in1014.9 mb 0.00 in0.0 mm 0.00 in0.0 mm 0.00 in0.0 mm
12:40 PM 69.6°F20.9°C 45.1°F7.3°C 41% 1.3 mph SSW2.1 kmh SSW 4.3 mph6.9 kmh 29.98 in1015.2 mb 0.00 in0.0 mm 0.00 in0.0 mm 0.00 in0.0 mm
12:30 PM 69.4°F20.8°C 45.0°F7.2°C 41% 1.3 mph SW2.1 kmh SW 4.3 mph6.9 kmh 29.98 in1015.2 mb 0.00 in0.0 mm 0.00 in0.0 mm 0.00 in0.0 mm
12:21 PM 69.1°F20.6°C 45.1°F7.3°C 42% 0.7 mph W1.1 kmh W 1.8 mph2.9 kmh 29.98 in1015.2 mb 0.00 in0.0 mm 0.00 in0.0 mm 0.00 in0.0 mm
12:10 PM 68.7°F20.4°C 44.4°F6.9°C 41% 0.7 mph S1.1 kmh S 1.8 mph2.9 kmh 29.98 in1015.2 mb 0.00 in0.0 mm 0.00 in0.0 mm 0.00 in0.0 mm
12:00 PM 68.4°F20.2°C 44.1°F6.7°C 41% 0.7 mph S1.1 kmh S 3.1 mph5.0 kmh 29.98 in1015.2 mb 0.00 in0.0 mm 0.00 in0.0 mm 0.00 in0.0 mm
11:50 AM 68.0°F20.0°C 43.3°F6.3°C 40% 1.3 mph SW2.1 kmh SW 2.5 mph4.0 kmh 29.99 in1015.6 mb 0.00 in0.0 mm 0.00 in0.0 mm 0.00 in0.0 mm
11:40 AM 67.6°F19.8°C 43.9°F6.6°C 42% 0.7 mph E1.1 kmh E 1.8 mph2.9 kmh 29.98 in1015.2 mb 0.00 in0.0 mm 0.00 in0.0 mm 0.00 in0.0 mm
11:30 AM 67.3°F19.6°C 43.9°F6.6°C 43% 1.3 mph SE2.1 kmh SE 2.5 mph4.0 kmh 29.99 in1015.6 mb 0.00 in0.0 mm 0.00 in0.0 mm 0.00 in0.0 mm
11:20 AM 66.7°F19.3°C 43.3°F6.3°C 43% 1.3 mph SSW2.1 kmh SSW 3.1 mph5.0 kmh 29.99 in1015.6 mb 0.00 in0.0 mm 0.00 in0.0 mm 0.00 in0.0 mm
11:10 AM 66.2°F19.0°C 43.3°F6.3°C 44% 1.3 mph S2.1 kmh S 4.3 mph6.9 kmh 29.99 in1015.6 mb 0.00 in0.0 mm 0.00 in0.0 mm 0.00 in0.0 mm
11:00 AM 65.5°F18.6°C 44.2°F6.8°C 48% 1.8 mph S2.9 kmh S 4.3 mph6.9 kmh 29.99 in1015.6 mb 0.00 in0.0 mm 0.00 in0.0 mm 0.00 in0.0 mm
10:50 AM 64.8°F18.2°C 44.1°F6.7°C 49% 1.3 mph SE2.1 kmh SE 3.1 mph5.0 kmh 29.99 in1015.6 mb 0.00 in0.0 mm 0.00 in0.0 mm 0.00 in0.0 mm
10:40 AM 64.0°F17.8°C 44.6°F7.0°C 52% 1.3 mph SW2.1 kmh SW 3.1 mph5.0 kmh 29.99 in1015.6 mb 0.00 in0.0 mm 0.00 in0.0 mm 0.00 in0.0 mm
10:29 AM 63.1°F17.3°C 44.6°F7.0°C 54% 1.3 mph WSW2.1 kmh WSW 3.1 mph5.0 kmh 30.00 in1015.9 mb 0.00 in0.0 mm 0.00 in0.0 mm 0.00 in0.0 mm
10:20 AM 62.2°F16.8°C 44.6°F7.0°C 56% 1.3 mph WSW2.1 kmh WSW 2.5 mph4.0 kmh 29.99 in1015.6 mb 0.00 in0.0 mm 0.00 in0.0 mm 0.00 in0.0 mm
10:10 AM 61.0°F16.1°C 44.6°F7.0°C 59% 0.7 mph SSW1.1 kmh SSW 1.8 mph2.9 kmh 30.00 in1015.9 mb 0.00 in0.0 mm 0.00 in0.0 mm 0.00 in0.0 mm
10:00 AM 59.9°F15.5°C 45.3°F7.4°C 63% 1.3 mph SE2.1 kmh SE 2.5 mph4.0 kmh 30.00 in1015.9 mb 0.00 in0.0 mm 0.00 in0.0 mm 0.00 in0.0 mm
09:49 AM 59.0°F15.0°C 44.8°F7.1°C 64% 0.7 mph SE1.1 kmh SE 1.8 mph2.9 kmh 30.00 in1015.9 mb 0.00 in0.0 mm 0.00 in0.0 mm 0.00 in0.0 mm
09:40 AM 57.9°F14.4°C 44.2°F6.8°C 65% 0.7 mph SSW1.1 kmh SSW 1.8 mph2.9 kmh 30.00 in1015.9 mb 0.00 in0.0 mm 0.00 in0.0 mm 0.00 in0.0 mm
09:30 AM 57.0°F13.9°C 45.3°F7.4°C 70% 1.3 mph SE2.1 kmh SE 2.5 mph4.0 kmh 30.00 in1015.9 mb 0.00 in0.0 mm 0.00 in0.0 mm 0.00 in0.0 mm
09:19 AM 55.9°F13.3°C 44.6°F7.0°C 71% 1.3 mph SE2.1 kmh SE 2.5 mph4.0 kmh 30.00 in1015.9 mb 0.00 in0.0 mm 0.00 in0.0 mm 0.00 in0.0 mm
09:09 AM 55.0°F12.8°C 44.2°F6.8°C 72% 0.7 mph SW1.1 kmh SW 1.8 mph2.9 kmh 30.00 in1015.9 mb 0.00 in0.0 mm 0.00 in0.0 mm 0.00 in0.0 mm
09:00 AM 53.8°F12.1°C 43.7°F6.5°C 74% 0.7 mph S1.1 kmh S 1.8 mph2.9 kmh 30.00 in1015.9 mb 0.00 in0.0 mm 0.00 in0.0 mm 0.00 in0.0 mm
08:50 AM 52.7°F11.5°C 42.3°F5.7°C 73% 0.7 mph SW1.1 kmh SW 1.3 mph2.1 kmh 30.00 in1015.9 mb 0.00 in0.0 mm 0.00 in0.0 mm 0.00 in0.0 mm
08:39 AM 51.8°F11.0°C 42.3°F5.7°C 75% 0.7 mph W1.1 kmh W 2.5 mph4.0 kmh 29.99 in1015.6 mb 0.00 in0.0 mm 0.00 in0.0 mm 0.00 in0.0 mm
08:29 AM 51.1°F10.6°C 42.3°F5.7°C 77% 1.3 mph SE2.1 kmh SE 2.5 mph4.0 kmh 29.99 in1015.6 mb 0.00 in0.0 mm 0.00 in0.0 mm 0.00 in0.0 mm
08:20 AM 50.4°F10.2°C 42.4°F5.8°C 79% 0.7 mph SSE1.1 kmh SSE 1.8 mph2.9 kmh 29.99 in1015.6 mb 0.00 in0.0 mm 0.00 in0.0 mm 0.00 in0.0 mm
08:09 AM 49.5°F9.7°C 41.5°F5.3°C 79% 0.7 mph SE1.1 kmh SE 1.8 mph2.9 kmh 30.00 in1015.9 mb 0.00 in0.0 mm 0.00 in0.0 mm 0.00 in0.0 mm
07:59 AM 48.6°F9.2°C 40.3°F4.6°C 78% 0.7 mph SW1.1 kmh SW 1.3 mph2.1 kmh 29.99 in1015.6 mb 0.00 in0.0 mm 0.00 in0.0 mm 0.00 in0.0 mm
07:49 AM 47.8°F8.8°C 39.6°F4.2°C 78% 1.3 mph SW2.1 kmh SW 2.5 mph4.0 kmh 30.00 in1015.9 mb 0.00 in0.0 mm 0.00 in0.0 mm 0.00 in0.0 mm
07:39 AM 47.3°F8.5°C 39.4°F4.1°C 79% 1.3 mph WSW2.1 kmh WSW 2.5 mph4.0 kmh 29.99 in1015.6 mb 0.00 in0.0 mm 0.00 in0.0 mm 0.00 in0.0 mm
07:29 AM 46.4°F8.0°C 39.4°F4.1°C 81% 0.7 mph SW1.1 kmh SW 1.3 mph2.1 kmh 29.99 in1015.6 mb 0.00 in0.0 mm 0.00 in0.0 mm 0.00 in0.0 mm
07:19 AM 45.7°F7.6°C 39.0°F3.9°C 82% 0.7 mph WSW1.1 kmh WSW 1.3 mph2.1 kmh 29.99 in1015.6 mb 0.00 in0.0 mm 0.00 in0.0 mm 0.00 in0.0 mm
07:09 AM 45.0°F7.2°C 38.7°F3.7°C 83% 1.3 mph SW2.1 kmh SW 2.5 mph4.0 kmh 29.99 in1015.6 mb 0.00 in0.0 mm 0.00 in0.0 mm 0.00 in0.0 mm
06:59 AM 44.6°F7.0°C 37.9°F3.3°C 82% 1.3 mph WSW2.1 kmh WSW 3.1 mph5.0 kmh 29.99 in1015.6 mb 0.00 in0.0 mm 0.00 in0.0 mm 0.00 in0.0 mm
06:49 AM 44.6°F7.0°C 37.6°F3.1°C 81% 1.3 mph SW2.1 kmh SW 3.1 mph5.0 kmh 29.99 in1015.6 mb 0.00 in0.0 mm 0.00 in0.0 mm 0.00 in0.0 mm
06:39 AM 45.0°F7.2°C 37.9°F3.3°C 81% 1.8 mph WSW2.9 kmh WSW 4.3 mph6.9 kmh 29.99 in1015.6 mb 0.00 in0.0 mm 0.00 in0.0 mm 0.00 in0.0 mm
06:29 AM 45.0°F7.2°C 37.9°F3.3°C 81% 0.7 mph W1.1 kmh W 1.3 mph2.1 kmh 29.98 in1015.2 mb 0.00 in0.0 mm 0.00 in0.0 mm 0.00 in0.0 mm
06:19 AM 45.0°F7.2°C 37.6°F3.1°C 80% 0.7 mph W1.1 kmh W 1.8 mph2.9 kmh 29.98 in1015.2 mb 0.00 in0.0 mm 0.00 in0.0 mm 0.00 in0.0 mm
06:09 AM 45.1°F7.3°C 37.8°F3.2°C 80% 1.3 mph WSW2.1 kmh WSW 2.5 mph4.0 kmh 29.98 in1015.2 mb 0.00 in0.0 mm 0.00 in0.0 mm 0.00 in0.0 mm
05:59 AM 45.3°F7.4°C 37.9°F3.3°C 80% 0.7 mph S1.1 kmh S 1.8 mph2.9 kmh 29.98 in1015.2 mb 0.00 in0.0 mm 0.00 in0.0 mm 0.00 in0.0 mm
05:48 AM 45.3°F7.4°C 38.3°F3.5°C 81% 1.3 mph WSW2.1 kmh WSW 3.1 mph5.0 kmh 29.98 in1015.2 mb 0.00 in0.0 mm 0.00 in0.0 mm 0.00 in0.0 mm
05:39 AM 45.1°F7.3°C 38.5°F3.6°C 82% 0.7 mph SW1.1 kmh SW 1.3 mph2.1 kmh 29.98 in1015.2 mb 0.00 in0.0 mm 0.00 in0.0 mm 0.00 in0.0 mm
05:29 AM 45.0°F7.2°C 37.9°F3.3°C 81% 1.3 mph SSW2.1 kmh SSW 4.9 mph7.9 kmh 29.98 in1015.2 mb 0.00 in0.0 mm 0.00 in0.0 mm 0.00 in0.0 mm
05:19 AM 45.1°F7.3°C 38.1°F3.4°C 81% 1.3 mph SW2.1 kmh SW 3.1 mph5.0 kmh 29.98 in1015.2 mb 0.00 in0.0 mm 0.00 in0.0 mm 0.00 in0.0 mm
05:08 AM 45.1°F7.3°C 38.1°F3.4°C 81% 1.3 mph SSW2.1 kmh SSW 2.5 mph4.0 kmh 29.98 in1015.2 mb 0.00 in0.0 mm 0.00 in0.0 mm 0.00 in0.0 mm
04:59 AM 45.3°F7.4°C 37.9°F3.3°C 80% 1.8 mph WSW2.9 kmh WSW 4.9 mph7.9 kmh 29.98 in1015.2 mb 0.00 in0.0 mm 0.00 in0.0 mm 0.00 in0.0 mm
04:49 AM 45.9°F7.7°C 38.5°F3.6°C 80% 0.7 mph W1.1 kmh W 2.5 mph4.0 kmh 29.98 in1015.2 mb 0.00 in0.0 mm 0.00 in0.0 mm 0.00 in0.0 mm
04:38 AM 46.2°F7.9°C 38.8°F3.8°C 80% 0.7 mph SSW1.1 kmh SSW 1.3 mph2.1 kmh 29.98 in1015.2 mb 0.00 in0.0 mm 0.00 in0.0 mm 0.00 in0.0 mm
04:28 AM 46.2°F7.9°C 38.3°F3.5°C 79% 1.3 mph SW2.1 kmh SW 2.5 mph4.0 kmh 29.98 in1015.2 mb 0.00 in0.0 mm 0.00 in0.0 mm 0.00 in0.0 mm
04:19 AM 46.2°F7.9°C 38.8°F3.8°C 80% 1.3 mph SW2.1 kmh SW 3.1 mph5.0 kmh 29.97 in1014.9 mb 0.00 in0.0 mm 0.00 in0.0 mm 0.00 in0.0 mm
04:08 AM 46.6°F8.1°C 38.7°F3.7°C 79% 1.8 mph SW2.9 kmh SW 2.5 mph4.0 kmh 29.97 in1014.9 mb 0.00 in0.0 mm 0.00 in0.0 mm 0.00 in0.0 mm
03:58 AM 46.8°F8.2°C 38.8°F3.8°C 79% 0.7 mph SW1.1 kmh SW 1.8 mph2.9 kmh 29.97 in1014.9 mb 0.00 in0.0 mm 0.00 in0.0 mm 0.00 in0.0 mm
03:48 AM 46.9°F8.3°C 39.0°F3.9°C 79% 1.3 mph WSW2.1 kmh WSW 1.8 mph2.9 kmh 29.97 in1014.9 mb 0.00 in0.0 mm 0.00 in0.0 mm 0.00 in0.0 mm
03:39 AM 47.1°F8.4°C 39.2°F4.0°C 79% 0.7 mph W1.1 kmh W 1.8 mph2.9 kmh 29.97 in1014.9 mb 0.00 in0.0 mm 0.00 in0.0 mm 0.00 in0.0 mm
03:28 AM 47.3°F8.5°C 39.4°F4.1°C 79% Calm Calm 1.3 mph2.1 kmh 29.97 in1014.9 mb 0.00 in0.0 mm 0.00 in0.0 mm 0.00 in0.0 mm
03:18 AM 47.5°F8.6°C 38.8°F3.8°C 77% 0.7 mph SSW1.1 kmh SSW 1.3 mph2.1 kmh 29.96 in1014.6 mb 0.00 in0.0 mm 0.00 in0.0 mm 0.00 in0.0 mm
03:08 AM 47.5°F8.6°C 39.2°F4.0°C 78% 1.3 mph SW2.1 kmh SW 1.8 mph2.9 kmh 29.97 in1014.9 mb 0.00 in0.0 mm 0.00 in0.0 mm 0.00 in0.0 mm
02:58 AM 47.7°F8.7°C 39.7°F4.3°C 79% 1.3 mph SW2.1 kmh SW 1.8 mph2.9 kmh 29.97 in1014.9 mb 0.00 in0.0 mm 0.00 in0.0 mm 0.00 in0.0 mm
02:48 AM 47.7°F8.7°C 39.4°F4.1°C 78% 0.7 mph SSW1.1 kmh SSW 1.3 mph2.1 kmh 29.97 in1014.9 mb 0.00 in0.0 mm 0.00 in0.0 mm 0.00 in0.0 mm
02:38 AM 47.7°F8.7°C 39.4°F4.1°C 78% 0.7 mph SSW1.1 kmh SSW 1.8 mph2.9 kmh 29.97 in1014.9 mb 0.00 in0.0 mm 0.00 in0.0 mm 0.00 in0.0 mm
02:28 AM 47.8°F8.8°C 39.2°F4.0°C 77% 0.7 mph W1.1 kmh W 1.8 mph2.9 kmh 29.97 in1014.9 mb 0.00 in0.0 mm 0.00 in0.0 mm 0.00 in0.0 mm
02:18 AM 48.0°F8.9°C 39.4°F4.1°C 77% 0.7 mph S1.1 kmh S 1.3 mph2.1 kmh 29.97 in1014.9 mb 0.00 in0.0 mm 0.00 in0.0 mm 0.00 in0.0 mm
02:08 AM 48.6°F9.2°C 39.9°F4.4°C 77% 1.3 mph WSW2.1 kmh WSW 1.8 mph2.9 kmh 29.97 in1014.9 mb 0.00 in0.0 mm 0.00 in0.0 mm 0.00 in0.0 mm
01:58 AM 48.7°F9.3°C 40.5°F4.7°C 78% 0.7 mph SW1.1 kmh SW 1.3 mph2.1 kmh 29.97 in1014.9 mb 0.00 in0.0 mm 0.00 in0.0 mm 0.00 in0.0 mm
01:47 AM 49.1°F9.5°C 40.5°F4.7°C 77% 1.3 mph SW2.1 kmh SW 1.8 mph2.9 kmh 29.97 in1014.9 mb 0.00 in0.0 mm 0.00 in0.0 mm 0.00 in0.0 mm
01:38 AM 49.3°F9.6°C 41.0°F5.0°C 78% 0.7 mph SSW1.1 kmh SSW 1.8 mph2.9 kmh 29.97 in1014.9 mb 0.00 in0.0 mm 0.00 in0.0 mm 0.00 in0.0 mm
01:28 AM 49.5°F9.7°C 41.2°F5.1°C 78% 0.7 mph SE1.1 kmh SE 1.8 mph2.9 kmh 29.97 in1014.9 mb 0.00 in0.0 mm 0.00 in0.0 mm 0.00 in0.0 mm
01:18 AM 49.8°F9.9°C 40.6°F4.8°C 76% 0.7 mph W1.1 kmh W 1.8 mph2.9 kmh 29.97 in1014.9 mb 0.00 in0.0 mm 0.00 in0.0 mm 0.00 in0.0 mm
01:07 AM 50.2°F10.1°C 41.0°F5.0°C 76% 0.7 mph SW1.1 kmh SW 1.3 mph2.1 kmh 29.97 in1014.9 mb 0.00 in0.0 mm 0.00 in0.0 mm 0.00 in0.0 mm
12:58 AM 50.2°F10.1°C 41.0°F5.0°C 76% 0.7 mph SSW1.1 kmh SSW 1.8 mph2.9 kmh 29.97 in1014.9 mb 0.00 in0.0 mm 0.00 in0.0 mm 0.00 in0.0 mm
12:48 AM 50.5°F10.3°C 41.4°F5.2°C 76% 1.3 mph WSW2.1 kmh WSW 2.5 mph4.0 kmh 29.97 in1014.9 mb 0.00 in0.0 mm 0.00 in0.0 mm 0.00 in0.0 mm
12:37 AM 50.7°F10.4°C 41.5°F5.3°C 76% 0.7 mph SSW1.1 kmh SSW 1.3 mph2.1 kmh 29.97 in1014.9 mb 0.00 in0.0 mm 0.00 in0.0 mm 0.00 in0.0 mm
12:27 AM 50.9°F10.5°C 41.4°F5.2°C 75% 1.3 mph SW2.1 kmh SW 1.8 mph2.9 kmh 29.96 in1014.6 mb 0.00 in0.0 mm 0.00 in0.0 mm 0.00 in0.0 mm
12:08 AM 51.3°F10.7°C 42.1°F5.6°C 76% 0.7 mph W1.1 kmh W 1.8 mph2.9 kmh 29.96 in1014.6 mb 0.00 in0.0 mm 0.00 in0.0 mm 0.00 in0.0 mm